CDT,Max TemperatureF,Mean TemperatureF,Min TemperatureF,Max Dew PointF,MeanDew PointF,Min DewpointF,Max Humidity, Mean Humidity, Min Humidity, Max Sea Level PressureIn, Mean Sea Level PressureIn, Min Sea Level PressureIn, Max VisibilityMiles, Mean VisibilityMiles, Min VisibilityMiles, Max Wind SpeedMPH, Mean Wind SpeedMPH, Max Gust SpeedMPH,PrecipitationIn, CloudCover, Events, WindDirDegrees
2013-4-1,48,40,31,36,23,14,82,56,30,30.33,30.25,30.06,10,10,10,26,11,31,0.00,4,,31
2013-4-2,53,40,26,23,20,18,69,49,28,30.36,30.30,30.24,10,10,10,14,4,22,0.00,0,,74
2013-4-3,49,38,27,27,24,21,85,61,37,30.38,30.32,30.27,10,9,2,12,3,15,0.00,3,,143
2013-4-4,65,45,25,36,31,24,92,62,31,30.26,30.17,30.08,10,10,7,10,3,17,0.00,1,,251
2013-4-5,73,52,31,42,35,30,100,62,23,30.17,30.01,29.75,10,9,4,29,11,35,0.00,0,,191
2013-4-6,77,61,45,47,42,39,76,53,29,29.82,29.72,29.66,10,10,10,26,11,36,0.00,0,,252
2013-4-7,78,59,40,57,46,38,93,60,27,29.84,29.73,29.60,10,10,2,23,7,30,0.19,5,Rain-Thunderstorm,173
2013-4-8,78,67,55,61,57,51,93,74,54,29.70,29.65,29.60,10,10,5,20,8,26,0.00,7,,157
2013-4-9,73,55,36,61,49,34,93,81,68,29.95,29.72,29.52,10,8,2,20,10,28,0.54,8,Rain-Thunderstorm,44
2013-4-10,37,35,32,36,32,30,96,89,82,30.02,29.92,29.84,10,7,2,15,7,21,0.31,8,Rain-Snow-Thunderstorm,317
2013-4-11,41,35,29,30,27,24,85,70,55,29.92,29.82,29.77,10,10,8,17,9,23,0.00,7,,283
2013-4-12,55,43,30,33,28,25,78,58,38,30.05,29.96,29.86,10,10,10,18,6,24,0.00,1,,298
2013-4-13,71,51,30,47,38,28,92,66,40,30.06,29.86,29.57,10,10,8,24,8,31,0.00,3,,155
2013-4-14,74,59,43,52,41,26,62,42,22,29.75,29.51,29.40,10,10,8,36,15,48,0.00,1,,222
2013-4-15,54,46,37,36,29,23,76,53,29,30.05,29.89,29.74,10,10,10,18,9,23,0.00,7,,23
2013-4-16,49,44,39,35,30,27,70,58,45,30.17,30.10,30.00,10,10,10,22,15,29,0.01,7,Rain,56
2013-4-17,47,44,40,46,41,36,96,83,70,30.08,29.84,29.68,10,5,1,22,8,32,1.51,8,Rain-Thunderstorm,30
2013-4-18,41,37,33,38,31,25,92,78,64,30.05,29.85,29.72,10,7,2,20,10,33,0.09,7,Rain-Snow-Thunderstorm,332
2013-4-19,55,43,30,29,27,24,78,57,35,30.13,30.05,30.01,10,10,10,20,9,25,0.00,2,,292
2013-4-20,59,44,29,37,31,25,85,62,38,30.21,30.14,30.07,10,10,8,22,10,25,0.00,3,,104
2013-4-21,71,58,45,43,40,37,71,52,33,30.15,30.09,30.03,10,10,10,28,12,37,0.00,2,,187
2013-4-22,58,47,36,51,43,33,96,79,61,30.20,30.02,29.93,10,8,2,21,7,28,0.24,6,Rain,5
2013-4-23,38,35,31,32,29,25,96,80,64,30.27,30.19,30.12,10,5,0,21,8,28,0.24,8,Fog-Rain-Snow,6
2013-4-24,58,41,24,34,27,21,88,59,30,30.30,30.24,30.16,10,10,10,17,5,24,0.00,1,,246
2013-4-25,71,50,29,40,34,28,92,59,25,30.31,30.21,30.09,10,10,7,23,7,31,0.00,0,,199
2013-4-26,60,55,50,49,46,37,93,72,51,30.19,30.14,30.06,10,9,5,22,9,31,0.12,8,Rain,151
2013-4-27,65,57,49,51,48,46,93,75,56,30.19,30.11,30.00,10,8,4,10,4,13,0.02,5,Rain,44
2013-4-28,80,60,39,56,46,37,100,70,39,30.01,29.91,29.72,10,4,0,21,8,28,0.00,0,Fog,203
2013-4-29,87,68,49,61,54,47,86,61,36,29.75,29.65,29.52,10,10,10,25,10,31,0.00,0,,206
2013-4-30,87,77,67,58,54,49,63,49,34,29.73,29.63,29.56,10,10,10,30,18,40,0.00,0,,196